sensor_id;sensor_type;location;lat;lon;timestamp;pressure;altitude;pressure_sealevel;temperature;humidity
21817;BME280;13247;47.504;7.382;2024-03-25T00:00:36;96901.34;;;6.74;100.00
21817;BME280;13247;47.504;7.382;2024-03-25T00:03:21;96901.16;;;6.45;100.00
21817;BME280;13247;47.504;7.382;2024-03-25T00:06:05;96904.44;;;6.53;100.00
21817;BME280;13247;47.504;7.382;2024-03-25T00:08:51;96904.78;;;6.38;100.00
21817;BME280;13247;47.504;7.382;2024-03-25T00:11:35;96895.91;;;6.48;100.00
21817;BME280;13247;47.504;7.382;2024-03-25T00:14:21;96910.84;;;6.39;100.00
21817;BME280;13247;47.504;7.382;2024-03-25T00:17:05;96906.84;;;6.24;100.00
21817;BME280;13247;47.504;7.382;2024-03-25T00:19:52;96909.25;;;6.31;100.00
21817;BME280;13247;47.504;7.382;2024-03-25T00:22:36;96897.56;;;6.12;100.00
21817;BME280;13247;47.504;7.382;2024-03-25T00:25:21;96898.19;;;6.22;100.00
21817;BME280;13247;47.504;7.382;2024-03-25T00:28:05;96899.56;;;6.38;100.00
21817;BME280;13247;47.504;7.382;2024-03-25T00:30:50;96886.59;;;6.37;100.00
21817;BME280;13247;47.504;7.382;2024-03-25T00:33:34;96896.22;;;6.33;100.00
21817;BME280;13247;47.504;7.382;2024-03-25T00:36:19;96886.16;;;6.55;100.00
21817;BME280;13247;47.504;7.382;2024-03-25T00:39:04;96889.41;;;6.66;100.00
21817;BME280;13247;47.504;7.382;2024-03-25T00:41:49;96891.66;;;6.44;100.00
21817;BME280;13247;47.504;7.382;2024-03-25T00:44:34;96881.28;;;6.41;100.00
21817;BME280;13247;47.504;7.382;2024-03-25T00:47:18;96887.38;;;6.42;100.00
21817;BME280;13247;47.504;7.382;2024-03-25T00:50:03;96875.97;;;6.46;100.00
21817;BME280;13247;47.504;7.382;2024-03-25T00:52:49;96873.19;;;6.53;100.00
21817;BME280;13247;47.504;7.382;2024-03-25T00:55:34;96872.56;;;6.44;100.00
21817;BME280;13247;47.504;7.382;2024-03-25T00:58:19;96861.94;;;6.51;100.00
21817;BME280;13247;47.504;7.382;2024-03-25T01:01:04;96861.06;;;6.52;100.00
21817;BME280;13247;47.504;7.382;2024-03-25T01:03:48;96850.50;;;6.58;100.00
21817;BME280;13247;47.504;7.382;2024-03-25T01:06:33;96840.66;;;6.71;100.00
21817;BME280;13247;47.504;7.382;2024-03-25T01:09:17;96841.28;;;6.80;100.00
21817;BME280;13247;47.504;7.382;2024-03-25T01:12:03;96846.03;;;6.65;100.00
21817;BME280;13247;47.504;7.382;2024-03-25T01:14:47;96836.31;;;6.71;100.00
21817;BME280;13247;47.504;7.382;2024-03-25T01:17:32;96836.38;;;6.68;100.00
21817;BME280;13247;47.504;7.382;2024-03-25T01:20:16;96837.16;;;6.35;100.00
21817;BME280;13247;47.504;7.382;2024-03-25T01:23:01;96839.63;;;6.41;100.00
21817;BME280;13247;47.504;7.382;2024-03-25T01:25:46;96829.34;;;6.35;100.00
21817;BME280;13247;47.504;7.382;2024-03-25T01:28:30;96827.28;;;6.11;100.00
21817;BME280;13247;47.504;7.382;2024-03-25T01:31:15;96827.91;;;5.39;100.00
21817;BME280;13247;47.504;7.382;2024-03-25T01:33:59;96828.44;;;5.56;100.00
21817;BME280;13247;47.504;7.382;2024-03-25T01:36:45;96824.09;;;5.57;100.00
21817;BME280;13247;47.504;7.382;2024-03-25T01:39:29;96820.88;;;5.43;100.00
21817;BME280;13247;47.504;7.382;2024-03-25T01:42:14;96830.34;;;5.48;100.00
21817;BME280;13247;47.504;7.382;2024-03-25T01:44:59;96816.25;;;5.58;100.00
21817;BME280;13247;47.504;7.382;2024-03-25T01:47:43;96813.00;;;5.49;100.00
21817;BME280;13247;47.504;7.382;2024-03-25T01:50:29;96819.94;;;5.47;100.00
21817;BME280;13247;47.504;7.382;2024-03-25T01:53:16;96817.69;;;5.73;100.00
21817;BME280;13247;47.504;7.382;2024-03-25T01:56:01;96808.81;;;5.82;100.00
21817;BME280;13247;47.504;7.382;2024-03-25T01:58:47;96803.72;;;5.77;100.00
21817;BME280;13247;47.504;7.382;2024-03-25T02:01:32;96810.72;;;6.16;100.00
21817;BME280;13247;47.504;7.382;2024-03-25T02:04:16;96797.16;;;6.39;100.00
21817;BME280;13247;47.504;7.382;2024-03-25T02:07:01;96791.03;;;6.40;100.00
21817;BME280;13247;47.504;7.382;2024-03-25T02:09:46;96790.94;;;6.08;100.00
21817;BME280;13247;47.504;7.382;2024-03-25T02:12:32;96788.56;;;5.97;100.00
21817;BME280;13247;47.504;7.382;2024-03-25T02:15:17;96787.91;;;5.88;100.00
21817;BME280;13247;47.504;7.382;2024-03-25T02:18:02;96786.22;;;5.87;100.00
21817;BME280;13247;47.504;7.382;2024-03-25T02:20:47;96783.50;;;6.28;100.00
21817;BME280;13247;47.504;7.382;2024-03-25T02:23:33;96781.13;;;6.19;100.00
21817;BME280;13247;47.504;7.382;2024-03-25T02:26:19;96778.03;;;6.03;100.00
21817;BME280;13247;47.504;7.382;2024-03-25T02:29:03;96772.06;;;5.98;100.00
21817;BME280;13247;47.504;7.382;2024-03-25T02:31:48;96772.16;;;5.94;100.00
21817;BME280;13247;47.504;7.382;2024-03-25T02:34:32;96775.81;;;5.87;100.00
21817;BME280;13247;47.504;7.382;2024-03-25T02:37:17;96777.47;;;5.89;100.00
21817;BME280;13247;47.504;7.382;2024-03-25T02:40:02;96779.78;;;6.38;100.00
21817;BME280;13247;47.504;7.382;2024-03-25T02:42:50;96781.47;;;6.41;100.00
21817;BME280;13247;47.504;7.382;2024-03-25T02:45:34;96772.94;;;6.34;100.00
21817;BME280;13247;47.504;7.382;2024-03-25T02:48:19;96778.91;;;6.39;100.00
21817;BME280;13247;47.504;7.382;2024-03-25T02:51:03;96776.38;;;6.38;100.00
21817;BME280;13247;47.504;7.382;2024-03-25T02:53:48;96774.03;;;6.25;100.00
21817;BME280;13247;47.504;7.382;2024-03-25T02:56:34;96766.97;;;6.30;100.00
21817;BME280;13247;47.504;7.382;2024-03-25T02:59:20;96769.88;;;6.18;100.00
21817;BME280;13247;47.504;7.382;2024-03-25T03:02:04;96759.47;;;6.17;100.00
21817;BME280;13247;47.504;7.382;2024-03-25T03:04:49;96761.97;;;5.83;100.00
21817;BME280;13247;47.504;7.382;2024-03-25T03:07:33;96766.38;;;5.80;100.00
21817;BME280;13247;47.504;7.382;2024-03-25T03:10:18;96759.84;;;6.02;100.00
21817;BME280;13247;47.504;7.382;2024-03-25T03:13:03;96757.50;;;5.90;100.00
21817;BME280;13247;47.504;7.382;2024-03-25T03:15:48;96761.22;;;5.78;100.00
21817;BME280;13247;47.504;7.382;2024-03-25T03:18:32;96751.78;;;5.74;100.00
21817;BME280;13247;47.504;7.382;2024-03-25T03:21:17;96759.34;;;5.83;100.00
21817;BME280;13247;47.504;7.382;2024-03-25T03:24:02;96752.03;;;5.62;100.00
21817;BME280;13247;47.504;7.382;2024-03-25T03:26:46;96747.72;;;5.61;100.00
21817;BME280;13247;47.504;7.382;2024-03-25T03:29:31;96764.19;;;5.62;100.00
21817;BME280;13247;47.504;7.382;2024-03-25T03:32:16;96765.84;;;5.66;100.00
21817;BME280;13247;47.504;7.382;2024-03-25T03:35:00;96761.22;;;5.77;100.00
21817;BME280;13247;47.504;7.382;2024-03-25T03:37:44;96762.75;;;5.88;100.00
21817;BME280;13247;47.504;7.382;2024-03-25T03:40:31;96758.31;;;6.30;100.00
21817;BME280;13247;47.504;7.382;2024-03-25T03:43:16;96752.94;;;6.38;100.00
21817;BME280;13247;47.504;7.382;2024-03-25T03:46:01;96739.91;;;6.36;100.00
21817;BME280;13247;47.504;7.382;2024-03-25T03:48:46;96740.59;;;6.09;100.00
21817;BME280;13247;47.504;7.382;2024-03-25T03:51:31;96732.88;;;6.04;100.00
21817;BME280;13247;47.504;7.382;2024-03-25T03:54:16;96729.03;;;6.20;100.00
21817;BME280;13247;47.504;7.382;2024-03-25T03:57:00;96735.69;;;5.97;100.00
21817;BME280;13247;47.504;7.382;2024-03-25T03:59:45;96716.84;;;6.22;100.00
21817;BME280;13247;47.504;7.382;2024-03-25T04:02:29;96711.34;;;6.34;100.00
21817;BME280;13247;47.504;7.382;2024-03-25T04:05:14;96716.44;;;6.39;100.00
21817;BME280;13247;47.504;7.382;2024-03-25T04:07:59;96720.13;;;6.30;100.00
21817;BME280;13247;47.504;7.382;2024-03-25T04:10:44;96715.25;;;6.51;100.00
21817;BME280;13247;47.504;7.382;2024-03-25T04:13:30;96714.59;;;6.07;100.00
21817;BME280;13247;47.504;7.382;2024-03-25T04:16:14;96708.75;;;5.98;100.00
21817;BME280;13247;47.504;7.382;2024-03-25T04:18:59;96709.81;;;5.91;100.00
21817;BME280;13247;47.504;7.382;2024-03-25T04:21:43;96716.41;;;6.05;100.00
21817;BME280;13247;47.504;7.382;2024-03-25T04:24:28;96700.41;;;6.20;100.00
21817;BME280;13247;47.504;7.382;2024-03-25T04:27:12;96699.75;;;6.12;100.00
21817;BME280;13247;47.504;7.382;2024-03-25T04:29:57;96699.41;;;5.89;100.00
21817;BME280;13247;47.504;7.382;2024-03-25T04:32:42;96691.97;;;5.74;100.00
21817;BME280;13247;47.504;7.382;2024-03-25T04:35:27;96688.38;;;5.78;100.00
21817;BME280;13247;47.504;7.382;2024-03-25T04:38:11;96682.16;;;5.85;100.00
21817;BME280;13247;47.504;7.382;2024-03-25T04:40:56;96676.09;;;5.83;100.00
21817;BME280;13247;47.504;7.382;2024-03-25T04:43:41;96676.94;;;5.87;100.00
21817;BME280;13247;47.504;7.382;2024-03-25T04:46:25;96663.97;;;5.85;100.00
21817;BME280;13247;47.504;7.382;2024-03-25T04:49:10;96667.31;;;5.90;100.00
21817;BME280;13247;47.504;7.382;2024-03-25T04:51:55;96653.66;;;5.79;100.00
21817;BME280;13247;47.504;7.382;2024-03-25T04:54:40;96657.19;;;5.78;100.00
21817;BME280;13247;47.504;7.382;2024-03-25T04:57:25;96668.69;;;5.67;100.00
21817;BME280;13247;47.504;7.382;2024-03-25T05:00:10;96664.88;;;5.84;100.00
21817;BME280;13247;47.504;7.382;2024-03-25T05:02:55;96669.00;;;5.54;100.00
21817;BME280;13247;47.504;7.382;2024-03-25T05:05:40;96668.38;;;5.43;100.00
21817;BME280;13247;47.504;7.382;2024-03-25T05:08:25;96664.63;;;5.17;100.00
21817;BME280;13247;47.504;7.382;2024-03-25T05:11:10;96666.72;;;4.55;100.00
21817;BME280;13247;47.504;7.382;2024-03-25T05:13:54;96676.94;;;4.17;100.00
21817;BME280;13247;47.504;7.382;2024-03-25T05:16:39;96685.38;;;4.30;100.00
21817;BME280;13247;47.504;7.382;2024-03-25T05:19:24;96686.78;;;4.47;100.00
21817;BME280;13247;47.504;7.382;2024-03-25T05:22:08;96678.81;;;4.58;100.00
21817;BME280;13247;47.504;7.382;2024-03-25T05:24:53;96667.38;;;4.66;100.00
21817;BME280;13247;47.504;7.382;2024-03-25T05:27:37;96664.38;;;4.86;100.00
21817;BME280;13247;47.504;7.382;2024-03-25T05:30:22;96651.91;;;4.62;100.00
21817;BME280;13247;47.504;7.382;2024-03-25T05:33:07;96657.13;;;4.59;100.00
21817;BME280;13247;47.504;7.382;2024-03-25T05:35:52;96656.31;;;4.10;100.00
21817;BME280;13247;47.504;7.382;2024-03-25T05:38:36;96667.34;;;4.21;100.00
21817;BME280;13247;47.504;7.382;2024-03-25T05:41:21;96662.94;;;4.26;100.00
21817;BME280;13247;47.504;7.382;2024-03-25T05:44:05;96650.84;;;4.26;100.00
21817;BME280;13247;47.504;7.382;2024-03-25T05:46:50;96656.47;;;4.01;100.00
21817;BME280;13247;47.504;7.382;2024-03-25T05:49:34;96667.16;;;3.81;100.00
21817;BME280;13247;47.504;7.382;2024-03-25T05:52:19;96674.25;;;3.70;100.00
21817;BME280;13247;47.504;7.382;2024-03-25T05:55:04;96675.06;;;3.73;100.00
21817;BME280;13247;47.504;7.382;2024-03-25T05:57:48;96675.56;;;3.95;100.00
21817;BME280;13247;47.504;7.382;2024-03-25T06:00:33;96669.53;;;3.93;100.00
21817;BME280;13247;47.504;7.382;2024-03-25T06:03:17;96663.25;;;4.08;100.00
21817;BME280;13247;47.504;7.382;2024-03-25T06:06:02;96663.09;;;4.17;100.00
21817;BME280;13247;47.504;7.382;2024-03-25T06:08:47;96669.19;;;4.14;100.00
21817;BME280;13247;47.504;7.382;2024-03-25T06:11:31;96663.94;;;4.20;100.00
21817;BME280;13247;47.504;7.382;2024-03-25T06:14:17;96656.16;;;4.19;100.00
21817;BME280;13247;47.504;7.382;2024-03-25T06:17:01;96648.09;;;4.34;100.00
21817;BME280;13247;47.504;7.382;2024-03-25T06:19:47;96634.56;;;4.64;100.00
21817;BME280;13247;47.504;7.382;2024-03-25T06:22:31;96643.59;;;4.86;100.00
21817;BME280;13247;47.504;7.382;2024-03-25T06:25:16;96635.13;;;4.78;100.00
21817;BME280;13247;47.504;7.382;2024-03-25T06:28:01;96623.41;;;5.00;100.00
21817;BME280;13247;47.504;7.382;2024-03-25T06:30:51;96630.19;;;5.07;100.00
21817;BME280;13247;47.504;7.382;2024-03-25T06:33:55;96620.22;;;4.88;100.00
21817;BME280;13247;47.504;7.382;2024-03-25T06:36:58;96619.91;;;5.01;100.00
21817;BME280;13247;47.504;7.382;2024-03-25T06:39:43;96610.34;;;5.05;100.00
21817;BME280;13247;47.504;7.382;2024-03-25T06:42:27;96612.09;;;5.03;100.00
21817;BME280;13247;47.504;7.382;2024-03-25T06:45:12;96626.75;;;5.05;100.00
21817;BME280;13247;47.504;7.382;2024-03-25T06:47:59;96629.34;;;5.07;100.00
21817;BME280;13247;47.504;7.382;2024-03-25T06:50:53;96631.56;;;5.23;100.00
21817;BME280;13247;47.504;7.382;2024-03-25T06:53:38;96637.50;;;5.28;100.00
21817;BME280;13247;47.504;7.382;2024-03-25T06:56:22;96623.41;;;5.40;100.00
21817;BME280;13247;47.504;7.382;2024-03-25T06:59:07;96617.22;;;5.44;100.00
21817;BME280;13247;47.504;7.382;2024-03-25T07:01:51;96619.91;;;5.78;100.00
21817;BME280;13247;47.504;7.382;2024-03-25T07:04:36;96613.72;;;5.82;100.00
21817;BME280;13247;47.504;7.382;2024-03-25T07:07:20;96602.38;;;5.86;100.00
21817;BME280;13247;47.504;7.382;2024-03-25T07:10:05;96589.88;;;6.00;100.00
21817;BME280;13247;47.504;7.382;2024-03-25T07:12:51;96588.06;;;6.03;100.00
21817;BME280;13247;47.504;7.382;2024-03-25T07:15:35;96578.22;;;5.81;100.00
21817;BME280;13247;47.504;7.382;2024-03-25T07:18:20;96578.09;;;6.19;100.00
21817;BME280;13247;47.504;7.382;2024-03-25T07:21:05;96575.91;;;6.04;100.00
21817;BME280;13247;47.504;7.382;2024-03-25T07:23:49;96573.69;;;6.21;100.00
21817;BME280;13247;47.504;7.382;2024-03-25T07:26:34;96563.50;;;6.46;100.00
21817;BME280;13247;47.504;7.382;2024-03-25T07:29:18;96559.41;;;6.37;100.00
21817;BME280;13247;47.504;7.382;2024-03-25T07:32:03;96554.19;;;6.37;100.00
21817;BME280;13247;47.504;7.382;2024-03-25T07:34:49;96555.56;;;6.50;100.00
21817;BME280;13247;47.504;7.382;2024-03-25T07:37:33;96549.06;;;6.65;100.00
21817;BME280;13247;47.504;7.382;2024-03-25T07:40:19;96549.91;;;6.65;100.00
21817;BME280;13247;47.504;7.382;2024-03-25T07:43:04;96537.41;;;6.76;100.00
21817;BME280;13247;47.504;7.382;2024-03-25T07:45:49;96527.00;;;6.76;100.00
21817;BME280;13247;47.504;7.382;2024-03-25T07:48:34;96526.81;;;6.53;100.00
21817;BME280;13247;47.504;7.382;2024-03-25T07:51:20;96534.94;;;6.72;100.00
21817;BME280;13247;47.504;7.382;2024-03-25T07:54:04;96522.13;;;6.93;100.00
21817;BME280;13247;47.504;7.382;2024-03-25T07:56:49;96517.13;;;7.15;100.00
21817;BME280;13247;47.504;7.382;2024-03-25T07:59:33;96505.50;;;7.25;100.00
21817;BME280;13247;47.504;7.382;2024-03-25T08:02:18;96502.56;;;7.36;100.00
21817;BME280;13247;47.504;7.382;2024-03-25T08:05:03;96503.16;;;7.44;100.00
21817;BME280;13247;47.504;7.382;2024-03-25T08:07:48;96496.31;;;7.41;100.00
21817;BME280;13247;47.504;7.382;2024-03-25T08:10:33;96501.88;;;7.57;100.00
21817;BME280;13247;47.504;7.382;2024-03-25T08:13:17;96490.97;;;7.44;100.00
21817;BME280;13247;47.504;7.382;2024-03-25T08:16:02;96483.53;;;7.58;100.00
21817;BME280;13247;47.504;7.382;2024-03-25T08:18:47;96488.03;;;7.79;100.00
21817;BME280;13247;47.504;7.382;2024-03-25T08:21:31;96474.63;;;7.90;100.00
21817;BME280;13247;47.504;7.382;2024-03-25T08:24:16;96471.81;;;7.96;100.00
21817;BME280;13247;47.504;7.382;2024-03-25T08:27:01;96463.94;;;7.98;100.00
21817;BME280;13247;47.504;7.382;2024-03-25T08:29:45;96460.84;;;7.86;100.00
21817;BME280;13247;47.504;7.382;2024-03-25T08:32:30;96452.19;;;8.09;100.00
21817;BME280;13247;47.504;7.382;2024-03-25T08:35:17;96452.06;;;7.89;100.00
21817;BME280;13247;47.504;7.382;2024-03-25T08:38:02;96451.81;;;8.20;100.00
21817;BME280;13247;47.504;7.382;2024-03-25T08:40:47;96461.84;;;8.32;100.00
21817;BME280;13247;47.504;7.382;2024-03-25T08:43:31;96453.25;;;8.51;100.00
21817;BME280;13247;47.504;7.382;2024-03-25T08:46:16;96451.28;;;8.35;100.00
21817;BME280;13247;47.504;7.382;2024-03-25T08:49:00;96448.19;;;8.47;100.00
21817;BME280;13247;47.504;7.382;2024-03-25T08:51:45;96451.13;;;8.39;100.00
21817;BME280;13247;47.504;7.382;2024-03-25T08:54:30;96435.31;;;8.65;100.00
21817;BME280;13247;47.504;7.382;2024-03-25T08:57:14;96434.50;;;8.87;100.00
21817;BME280;13247;47.504;7.382;2024-03-25T08:59:59;96424.84;;;8.89;100.00
21817;BME280;13247;47.504;7.382;2024-03-25T09:02:44;96418.13;;;9.03;100.00
21817;BME280;13247;47.504;7.382;2024-03-25T09:05:28;96414.41;;;8.87;100.00
21817;BME280;13247;47.504;7.382;2024-03-25T09:08:13;96407.50;;;9.08;100.00
21817;BME280;13247;47.504;7.382;2024-03-25T09:10:57;96397.16;;;8.83;100.00
21817;BME280;13247;47.504;7.382;2024-03-25T09:13:51;96392.09;;;9.00;100.00
21817;BME280;13247;47.504;7.382;2024-03-25T09:16:37;96398.34;;;9.18;100.00
21817;BME280;13247;47.504;7.382;2024-03-25T09:19:21;96394.69;;;9.22;100.00
21817;BME280;13247;47.504;7.382;2024-03-25T09:22:06;96394.69;;;9.22;100.00
21817;BME280;13247;47.504;7.382;2024-03-25T09:24:51;96376.22;;;9.26;100.00
21817;BME280;13247;47.504;7.382;2024-03-25T09:27:36;96364.31;;;9.39;100.00
21817;BME280;13247;47.504;7.382;2024-03-25T09:30:21;96369.06;;;9.70;100.00
21817;BME280;13247;47.504;7.382;2024-03-25T09:33:05;96370.59;;;9.56;100.00
21817;BME280;13247;47.504;7.382;2024-03-25T09:35:50;96362.00;;;9.92;100.00
21817;BME280;13247;47.504;7.382;2024-03-25T09:38:34;96360.31;;;10.10;100.00
21817;BME280;13247;47.504;7.382;2024-03-25T09:41:19;96360.28;;;10.11;100.00
21817;BME280;13247;47.504;7.382;2024-03-25T09:44:04;96348.47;;;10.21;100.00
21817;BME280;13247;47.504;7.382;2024-03-25T09:46:50;96341.81;;;10.33;100.00
21817;BME280;13247;47.504;7.382;2024-03-25T09:49:35;96343.34;;;10.18;100.00
21817;BME280;13247;47.504;7.382;2024-03-25T09:52:21;96347.03;;;10.52;100.00
21817;BME280;13247;47.504;7.382;2024-03-25T09:55:07;96351.59;;;10.11;100.00
21817;BME280;13247;47.504;7.382;2024-03-25T09:57:52;96346.53;;;10.44;100.00
21817;BME280;13247;47.504;7.382;2024-03-25T10:00:38;96341.72;;;10.72;100.00
21817;BME280;13247;47.504;7.382;2024-03-25T10:03:23;96332.13;;;10.71;100.00
21817;BME280;13247;47.504;7.382;2024-03-25T10:06:08;96326.31;;;10.83;100.00
21817;BME280;13247;47.504;7.382;2024-03-25T10:08:54;96320.25;;;10.99;100.00
21817;BME280;13247;47.504;7.382;2024-03-25T10:11:41;96309.03;;;10.79;100.00
21817;BME280;13247;47.504;7.382;2024-03-25T10:14:26;96309.44;;;11.05;100.00
21817;BME280;13247;47.504;7.382;2024-03-25T10:17:10;96306.72;;;10.90;100.00
21817;BME280;13247;47.504;7.382;2024-03-25T10:19:56;96291.63;;;10.95;100.00
21817;BME280;13247;47.504;7.382;2024-03-25T10:22:44;96290.22;;;10.88;100.00
21817;BME280;13247;47.504;7.382;2024-03-25T10:25:30;96281.22;;;11.11;100.00
21817;BME280;13247;47.504;7.382;2024-03-25T10:28:16;96267.84;;;11.32;100.00
21817;BME280;13247;47.504;7.382;2024-03-25T10:31:04;96269.56;;;10.99;100.00
21817;BME280;13247;47.504;7.382;2024-03-25T10:33:48;96255.00;;;11.11;100.00
21817;BME280;13247;47.504;7.382;2024-03-25T10:36:33;96244.63;;;11.25;100.00
21817;BME280;13247;47.504;7.382;2024-03-25T10:39:21;96236.84;;;11.23;100.00
21817;BME280;13247;47.504;7.382;2024-03-25T10:42:11;96238.59;;;11.40;100.00
21817;BME280;13247;47.504;7.382;2024-03-25T10:44:57;96232.63;;;11.86;100.00
21817;BME280;13247;47.504;7.382;2024-03-25T10:47:42;96225.00;;;11.64;100.00
21817;BME280;13247;47.504;7.382;2024-03-25T10:50:29;96226.59;;;11.19;100.00
21817;BME280;13247;47.504;7.382;2024-03-25T10:53:17;96211.81;;;11.33;100.00
21817;BME280;13247;47.504;7.382;2024-03-25T10:56:03;96213.63;;;11.48;100.00
21817;BME280;13247;47.504;7.382;2024-03-25T10:58:50;96213.44;;;11.36;100.00
21817;BME280;13247;47.504;7.382;2024-03-25T11:01:36;96200.19;;;11.54;100.00
21817;BME280;13247;47.504;7.382;2024-03-25T11:04:25;96197.34;;;11.74;100.00
21817;BME280;13247;47.504;7.382;2024-03-25T11:07:14;96184.69;;;11.82;100.00
21817;BME280;13247;47.504;7.382;2024-03-25T11:10:04;96179.91;;;11.73;100.00
21817;BME280;13247;47.504;7.382;2024-03-25T11:12:50;96178.31;;;11.71;100.00
21817;BME280;13247;47.504;7.382;2024-03-25T11:15:41;96177.44;;;12.02;100.00
21817;BME280;13247;47.504;7.382;2024-03-25T11:18:28;96172.63;;;11.78;100.00
21817;BME280;13247;47.504;7.382;2024-03-25T11:21:15;96162.97;;;11.79;100.00
21817;BME280;13247;47.504;7.382;2024-03-25T11:24:09;96158.47;;;12.28;100.00
21817;BME280;13247;47.504;7.382;2024-03-25T11:26:54;96148.97;;;12.25;100.00
21817;BME280;13247;47.504;7.382;2024-03-25T11:29:38;96139.31;;;12.10;100.00
21817;BME280;13247;47.504;7.382;2024-03-25T11:32:25;96129.53;;;12.28;100.00
21817;BME280;13247;47.504;7.382;2024-03-25T11:35:11;96124.03;;;12.62;100.00
21817;BME280;13247;47.504;7.382;2024-03-25T11:37:56;96126.41;;;12.67;100.00
21817;BME280;13247;47.504;7.382;2024-03-25T11:40:45;96122.75;;;12.83;100.00
21817;BME280;13247;47.504;7.382;2024-03-25T11:43:30;96107.34;;;12.77;100.00
21817;BME280;13247;47.504;7.382;2024-03-25T11:46:18;96112.75;;;12.60;100.00
21817;BME280;13247;47.504;7.382;2024-03-25T11:49:06;96100.94;;;12.67;100.00
21817;BME280;13247;47.504;7.382;2024-03-25T11:51:51;96094.78;;;12.52;100.00
21817;BME280;13247;47.504;7.382;2024-03-25T11:54:36;96079.69;;;12.56;100.00
21817;BME280;13247;47.504;7.382;2024-03-25T11:57:22;96073.31;;;12.60;100.00
21817;BME280;13247;47.504;7.382;2024-03-25T12:00:08;96067.72;;;12.94;100.00
21817;BME280;13247;47.504;7.382;2024-03-25T12:02:55;96058.47;;;12.59;100.00
21817;BME280;13247;47.504;7.382;2024-03-25T12:05:40;96061.78;;;12.63;100.00
21817;BME280;13247;47.504;7.382;2024-03-25T12:08:26;96047.28;;;12.70;100.00
21817;BME280;13247;47.504;7.382;2024-03-25T12:11:12;96057.22;;;13.08;100.00
21817;BME280;13247;47.504;7.382;2024-03-25T12:14:03;96041.69;;;12.90;100.00
21817;BME280;13247;47.504;7.382;2024-03-25T12:16:48;96027.53;;;13.06;100.00
21817;BME280;13247;47.504;7.382;2024-03-25T12:19:34;96029.47;;;13.03;100.00
21817;BME280;13247;47.504;7.382;2024-03-25T12:22:19;96024.13;;;12.90;100.00
21817;BME280;13247;47.504;7.382;2024-03-25T12:25:05;96015.84;;;13.24;100.00
21817;BME280;13247;47.504;7.382;2024-03-25T12:27:50;96012.75;;;12.90;100.00
21817;BME280;13247;47.504;7.382;2024-03-25T12:30:50;95991.47;;;12.50;100.00
21817;BME280;13247;47.504;7.382;2024-03-25T12:33:42;95990.78;;;13.05;100.00
21817;BME280;13247;47.504;7.382;2024-03-25T12:36:28;95990.72;;;13.33;100.00
21817;BME280;13247;47.504;7.382;2024-03-25T12:39:21;95970.09;;;13.54;100.00
21817;BME280;13247;47.504;7.382;2024-03-25T12:42:05;95964.19;;;13.89;100.00
21817;BME280;13247;47.504;7.382;2024-03-25T12:44:50;95957.66;;;13.95;100.00
21817;BME280;13247;47.504;7.382;2024-03-25T12:47:35;95954.22;;;13.68;100.00
21817;BME280;13247;47.504;7.382;2024-03-25T12:50:19;95946.06;;;13.58;100.00
21817;BME280;13247;47.504;7.382;2024-03-25T12:53:08;95931.75;;;13.62;100.00
21817;BME280;13247;47.504;7.382;2024-03-25T12:55:52;95937.38;;;13.70;100.00
21817;BME280;13247;47.504;7.382;2024-03-25T12:58:37;95930.09;;;13.74;100.00
21817;BME280;13247;47.504;7.382;2024-03-25T13:01:21;95935.09;;;13.91;100.00
21817;BME280;13247;47.504;7.382;2024-03-25T13:04:06;95913.41;;;14.12;100.00
21817;BME280;13247;47.504;7.382;2024-03-25T13:06:51;95909.22;;;13.71;100.00
21817;BME280;13247;47.504;7.382;2024-03-25T13:09:36;95906.84;;;13.93;100.00
21817;BME280;13247;47.504;7.382;2024-03-25T13:12:21;95888.09;;;14.10;100.00
21817;BME280;13247;47.504;7.382;2024-03-25T13:15:06;95879.44;;;13.95;100.00
21817;BME280;13247;47.504;7.382;2024-03-25T13:17:50;95881.09;;;13.84;100.00
21817;BME280;13247;47.504;7.382;2024-03-25T13:20:35;95876.63;;;13.47;100.00
21817;BME280;13247;47.504;7.382;2024-03-25T13:23:20;95873.47;;;13.54;100.00
21817;BME280;13247;47.504;7.382;2024-03-25T13:26:04;95871.00;;;13.90;100.00
21817;BME280;13247;47.504;7.382;2024-03-25T13:28:49;95870.69;;;13.82;100.00
21817;BME280;13247;47.504;7.382;2024-03-25T13:31:34;95863.34;;;14.25;100.00
21817;BME280;13247;47.504;7.382;2024-03-25T13:34:19;95859.41;;;13.93;100.00
21817;BME280;13247;47.504;7.382;2024-03-25T13:37:04;95856.91;;;14.42;100.00
21817;BME280;13247;47.504;7.382;2024-03-25T13:39:48;95852.88;;;14.24;100.00
21817;BME280;13247;47.504;7.382;2024-03-25T13:42:34;95842.31;;;14.24;100.00
21817;BME280;13247;47.504;7.382;2024-03-25T13:45:19;95841.69;;;14.45;96.72
21817;BME280;13247;47.504;7.382;2024-03-25T13:48:04;95832.22;;;14.05;92.55
21817;BME280;13247;47.504;7.382;2024-03-25T13:50:49;95835.59;;;14.07;100.00
21817;BME280;13247;47.504;7.382;2024-03-25T13:53:33;95843.28;;;13.97;100.00
21817;BME280;13247;47.504;7.382;2024-03-25T13:56:18;95831.16;;;14.20;100.00
21817;BME280;13247;47.504;7.382;2024-03-25T13:59:02;95818.66;;;14.60;100.00
21817;BME280;13247;47.504;7.382;2024-03-25T14:01:47;95832.94;;;14.45;97.66
21817;BME280;13247;47.504;7.382;2024-03-25T14:04:32;95808.91;;;14.11;99.49
21817;BME280;13247;47.504;7.382;2024-03-25T14:07:16;95800.75;;;14.52;100.00
21817;BME280;13247;47.504;7.382;2024-03-25T14:10:01;95797.53;;;14.72;100.00
21817;BME280;13247;47.504;7.382;2024-03-25T14:12:47;95803.63;;;14.24;100.00
21817;BME280;13247;47.504;7.382;2024-03-25T14:15:32;95791.69;;;14.56;100.00
21817;BME280;13247;47.504;7.382;2024-03-25T14:18:17;95787.13;;;14.94;100.00
21817;BME280;13247;47.504;7.382;2024-03-25T14:21:02;95791.19;;;14.75;100.00
21817;BME280;13247;47.504;7.382;2024-03-25T14:23:46;95782.22;;;14.77;100.00
21817;BME280;13247;47.504;7.382;2024-03-25T14:26:32;95779.28;;;15.17;96.03
21817;BME280;13247;47.504;7.382;2024-03-25T14:29:16;95791.94;;;15.48;99.44
21817;BME280;13247;47.504;7.382;2024-03-25T14:32:01;95778.09;;;15.21;91.08